sensor_id;sensor_type;location;lat;lon;timestamp;P1;P2;P0
49644;PMS5003;36494;50.730;-1.932;2023-04-25T00:01:51;16;13;
49644;PMS5003;36494;50.730;-1.932;2023-04-25T00:04:16;14;14;
49644;PMS5003;36494;50.730;-1.932;2023-04-25T00:06:41;13;12;
49644;PMS5003;36494;50.730;-1.932;2023-04-25T00:09:07;12;12;
49644;PMS5003;36494;50.730;-1.932;2023-04-25T00:11:32;15;14;
49644;PMS5003;36494;50.730;-1.932;2023-04-25T00:13:58;17;16;
49644;PMS5003;36494;50.730;-1.932;2023-04-25T00:16:24;17;16;
49644;PMS5003;36494;50.730;-1.932;2023-04-25T00:18:49;12;12;
49644;PMS5003;36494;50.730;-1.932;2023-04-25T00:21:14;16;14;
49644;PMS5003;36494;50.730;-1.932;2023-04-25T00:23:39;17;16;
49644;PMS5003;36494;50.730;-1.932;2023-04-25T00:26:05;22;19;
49644;PMS5003;36494;50.730;-1.932;2023-04-25T00:28:31;16;16;
49644;PMS5003;36494;50.730;-1.932;2023-04-25T00:30:56;19;18;
49644;PMS5003;36494;50.730;-1.932;2023-04-25T00:33:21;19;17;
49644;PMS5003;36494;50.730;-1.932;2023-04-25T00:35:46;16;15;
49644;PMS5003;36494;50.730;-1.932;2023-04-25T00:38:12;17;14;
49644;PMS5003;36494;50.730;-1.932;2023-04-25T00:40:37;20;18;
49644;PMS5003;36494;50.730;-1.932;2023-04-25T00:43:02;22;19;
49644;PMS5003;36494;50.730;-1.932;2023-04-25T00:45:28;18;16;
49644;PMS5003;36494;50.730;-1.932;2023-04-25T00:47:53;16;13;
49644;PMS5003;36494;50.730;-1.932;2023-04-25T00:50:19;20;19;
49644;PMS5003;36494;50.730;-1.932;2023-04-25T00:52:44;17;14;
49644;PMS5003;36494;50.730;-1.932;2023-04-25T00:55:09;21;18;
49644;PMS5003;36494;50.730;-1.932;2023-04-25T00:57:35;13;13;
49644;PMS5003;36494;50.730;-1.932;2023-04-25T01:00:00;14;13;
49644;PMS5003;36494;50.730;-1.932;2023-04-25T01:02:26;14;13;
49644;PMS5003;36494;50.730;-1.932;2023-04-25T01:04:52;16;16;
49644;PMS5003;36494;50.730;-1.932;2023-04-25T01:07:17;16;16;
49644;PMS5003;36494;50.730;-1.932;2023-04-25T01:09:42;20;16;
49644;PMS5003;36494;50.730;-1.932;2023-04-25T01:12:08;17;15;
49644;PMS5003;36494;50.730;-1.932;2023-04-25T01:14:33;13;11;
49644;PMS5003;36494;50.730;-1.932;2023-04-25T01:16:59;13;12;
49644;PMS5003;36494;50.730;-1.932;2023-04-25T01:19:24;11;11;
49644;PMS5003;36494;50.730;-1.932;2023-04-25T01:21:49;14;13;
49644;PMS5003;36494;50.730;-1.932;2023-04-25T01:24:15;19;15;
49644;PMS5003;36494;50.730;-1.932;2023-04-25T01:26:40;16;16;
49644;PMS5003;36494;50.730;-1.932;2023-04-25T01:29:06;16;15;
49644;PMS5003;36494;50.730;-1.932;2023-04-25T01:31:30;14;13;
49644;PMS5003;36494;50.730;-1.932;2023-04-25T01:33:56;17;16;
49644;PMS5003;36494;50.730;-1.932;2023-04-25T01:36:22;17;16;
49644;PMS5003;36494;50.730;-1.932;2023-04-25T01:38:47;16;14;
49644;PMS5003;36494;50.730;-1.932;2023-04-25T01:41:12;17;17;
49644;PMS5003;36494;50.730;-1.932;2023-04-25T01:43:37;15;14;
49644;PMS5003;36494;50.730;-1.932;2023-04-25T01:46:02;14;13;
49644;PMS5003;36494;50.730;-1.932;2023-04-25T01:48:28;12;12;
49644;PMS5003;36494;50.730;-1.932;2023-04-25T01:50:53;13;11;
49644;PMS5003;36494;50.730;-1.932;2023-04-25T01:53:18;12;12;
49644;PMS5003;36494;50.730;-1.932;2023-04-25T01:55:43;15;15;
49644;PMS5003;36494;50.730;-1.932;2023-04-25T01:58:08;16;15;
49644;PMS5003;36494;50.730;-1.932;2023-04-25T02:00:34;13;11;
49644;PMS5003;36494;50.730;-1.932;2023-04-25T02:03:00;16;15;
49644;PMS5003;36494;50.730;-1.932;2023-04-25T02:05:26;13;12;
49644;PMS5003;36494;50.730;-1.932;2023-04-25T02:07:51;15;15;
49644;PMS5003;36494;50.730;-1.932;2023-04-25T02:10:17;15;15;
49644;PMS5003;36494;50.730;-1.932;2023-04-25T02:12:42;13;12;
49644;PMS5003;36494;50.730;-1.932;2023-04-25T02:15:08;12;12;
49644;PMS5003;36494;50.730;-1.932;2023-04-25T02:17:33;15;15;
49644;PMS5003;36494;50.730;-1.932;2023-04-25T02:19:58;13;13;
49644;PMS5003;36494;50.730;-1.932;2023-04-25T02:22:23;17;16;
49644;PMS5003;36494;50.730;-1.932;2023-04-25T02:24:48;15;14;
49644;PMS5003;36494;50.730;-1.932;2023-04-25T02:27:14;15;15;
49644;PMS5003;36494;50.730;-1.932;2023-04-25T02:29:39;16;15;
49644;PMS5003;36494;50.730;-1.932;2023-04-25T02:32:05;13;12;
49644;PMS5003;36494;50.730;-1.932;2023-04-25T02:34:30;14;13;
49644;PMS5003;36494;50.730;-1.932;2023-04-25T02:36:55;14;14;
49644;PMS5003;36494;50.730;-1.932;2023-04-25T02:39:21;16;15;
49644;PMS5003;36494;50.730;-1.932;2023-04-25T02:41:47;16;14;
49644;PMS5003;36494;50.730;-1.932;2023-04-25T02:44:12;16;15;
49644;PMS5003;36494;50.730;-1.932;2023-04-25T02:46:37;11;10;
49644;PMS5003;36494;50.730;-1.932;2023-04-25T02:49:02;13;12;
49644;PMS5003;36494;50.730;-1.932;2023-04-25T02:51:28;14;13;
49644;PMS5003;36494;50.730;-1.932;2023-04-25T02:53:54;15;13;
49644;PMS5003;36494;50.730;-1.932;2023-04-25T02:56:19;18;17;
49644;PMS5003;36494;50.730;-1.932;2023-04-25T02:58:44;14;14;
49644;PMS5003;36494;50.730;-1.932;2023-04-25T03:01:09;15;15;
49644;PMS5003;36494;50.730;-1.932;2023-04-25T03:03:35;13;11;
49644;PMS5003;36494;50.730;-1.932;2023-04-25T03:06:00;13;12;
49644;PMS5003;36494;50.730;-1.932;2023-04-25T03:08:25;11;11;
49644;PMS5003;36494;50.730;-1.932;2023-04-25T03:10:51;14;13;
49644;PMS5003;36494;50.730;-1.932;2023-04-25T03:13:17;12;11;
49644;PMS5003;36494;50.730;-1.932;2023-04-25T03:15:43;8;8;
49644;PMS5003;36494;50.730;-1.932;2023-04-25T03:18:08;11;9;
49644;PMS5003;36494;50.730;-1.932;2023-04-25T03:20:33;9;8;
49644;PMS5003;36494;50.730;-1.932;2023-04-25T03:22:59;14;14;
49644;PMS5003;36494;50.730;-1.932;2023-04-25T03:25:24;10;10;
49644;PMS5003;36494;50.730;-1.932;2023-04-25T03:27:49;16;13;
49644;PMS5003;36494;50.730;-1.932;2023-04-25T03:30:15;10;10;
49644;PMS5003;36494;50.730;-1.932;2023-04-25T03:32:40;14;12;
49644;PMS5003;36494;50.730;-1.932;2023-04-25T03:35:05;17;14;
49644;PMS5003;36494;50.730;-1.932;2023-04-25T03:37:31;15;15;
49644;PMS5003;36494;50.730;-1.932;2023-04-25T03:39:56;17;15;
49644;PMS5003;36494;50.730;-1.932;2023-04-25T03:42:22;13;12;
49644;PMS5003;36494;50.730;-1.932;2023-04-25T03:44:47;15;14;
49644;PMS5003;36494;50.730;-1.932;2023-04-25T03:47:13;14;13;
49644;PMS5003;36494;50.730;-1.932;2023-04-25T03:49:38;15;15;
49644;PMS5003;36494;50.730;-1.932;2023-04-25T03:52:04;12;12;
49644;PMS5003;36494;50.730;-1.932;2023-04-25T03:54:29;13;12;
49644;PMS5003;36494;50.730;-1.932;2023-04-25T03:56:54;9;9;
49644;PMS5003;36494;50.730;-1.932;2023-04-25T03:59:20;13;12;
49644;PMS5003;36494;50.730;-1.932;2023-04-25T04:01:45;10;10;
49644;PMS5003;36494;50.730;-1.932;2023-04-25T04:04:11;11;11;
49644;PMS5003;36494;50.730;-1.932;2023-04-25T04:06:37;13;13;
49644;PMS5003;36494;50.730;-1.932;2023-04-25T04:09:02;10;9;
49644;PMS5003;36494;50.730;-1.932;2023-04-25T04:11:27;11;11;
49644;PMS5003;36494;50.730;-1.932;2023-04-25T04:13:53;9;9;
49644;PMS5003;36494;50.730;-1.932;2023-04-25T04:16:18;11;11;
49644;PMS5003;36494;50.730;-1.932;2023-04-25T04:18:45;10;10;
49644;PMS5003;36494;50.730;-1.932;2023-04-25T04:21:09;12;11;
49644;PMS5003;36494;50.730;-1.932;2023-04-25T04:23:34;11;11;
49644;PMS5003;36494;50.730;-1.932;2023-04-25T04:26:00;11;10;
49644;PMS5003;36494;50.730;-1.932;2023-04-25T04:28:25;12;11;
49644;PMS5003;36494;50.730;-1.932;2023-04-25T04:30:50;10;10;
49644;PMS5003;36494;50.730;-1.932;2023-04-25T04:33:16;8;8;
49644;PMS5003;36494;50.730;-1.932;2023-04-25T04:35:41;9;9;
49644;PMS5003;36494;50.730;-1.932;2023-04-25T04:38:06;7;7;
49644;PMS5003;36494;50.730;-1.932;2023-04-25T04:40:32;7;7;
49644;PMS5003;36494;50.730;-1.932;2023-04-25T04:42:57;9;9;
49644;PMS5003;36494;50.730;-1.932;2023-04-25T04:45:22;10;10;
49644;PMS5003;36494;50.730;-1.932;2023-04-25T04:47:48;8;8;
49644;PMS5003;36494;50.730;-1.932;2023-04-25T04:50:13;10;9;
49644;PMS5003;36494;50.730;-1.932;2023-04-25T04:52:39;9;9;
49644;PMS5003;36494;50.730;-1.932;2023-04-25T04:55:05;8;8;
49644;PMS5003;36494;50.730;-1.932;2023-04-25T04:57:30;10;9;
49644;PMS5003;36494;50.730;-1.932;2023-04-25T04:59:55;7;6;
49644;PMS5003;36494;50.730;-1.932;2023-04-25T05:02:20;8;8;
49644;PMS5003;36494;50.730;-1.932;2023-04-25T05:04:46;10;9;
49644;PMS5003;36494;50.730;-1.932;2023-04-25T05:07:11;9;9;
49644;PMS5003;36494;50.730;-1.932;2023-04-25T05:09:37;11;10;
49644;PMS5003;36494;50.730;-1.932;2023-04-25T05:12:02;10;10;
49644;PMS5003;36494;50.730;-1.932;2023-04-25T05:14:28;10;9;
49644;PMS5003;36494;50.730;-1.932;2023-04-25T05:16:53;9;9;
49644;PMS5003;36494;50.730;-1.932;2023-04-25T05:19:18;8;7;
49644;PMS5003;36494;50.730;-1.932;2023-04-25T05:21:43;9;8;
49644;PMS5003;36494;50.730;-1.932;2023-04-25T05:24:09;12;10;
49644;PMS5003;36494;50.730;-1.932;2023-04-25T05:26:34;10;9;
49644;PMS5003;36494;50.730;-1.932;2023-04-25T05:28:59;11;10;
49644;PMS5003;36494;50.730;-1.932;2023-04-25T05:31:25;11;10;
49644;PMS5003;36494;50.730;-1.932;2023-04-25T05:33:50;8;8;
49644;PMS5003;36494;50.730;-1.932;2023-04-25T05:36:16;8;8;
49644;PMS5003;36494;50.730;-1.932;2023-04-25T05:38:41;9;8;
49644;PMS5003;36494;50.730;-1.932;2023-04-25T05:41:07;9;8;
49644;PMS5003;36494;50.730;-1.932;2023-04-25T05:43:32;9;9;
49644;PMS5003;36494;50.730;-1.932;2023-04-25T05:45:58;7;7;
49644;PMS5003;36494;50.730;-1.932;2023-04-25T05:48:23;7;6;
49644;PMS5003;36494;50.730;-1.932;2023-04-25T05:50:48;7;6;
49644;PMS5003;36494;50.730;-1.932;2023-04-25T05:53:14;7;7;
49644;PMS5003;36494;50.730;-1.932;2023-04-25T05:55:39;6;5;
49644;PMS5003;36494;50.730;-1.932;2023-04-25T05:58:04;7;6;
49644;PMS5003;36494;50.730;-1.932;2023-04-25T06:00:30;9;7;
49644;PMS5003;36494;50.730;-1.932;2023-04-25T06:02:55;5;5;
49644;PMS5003;36494;50.730;-1.932;2023-04-25T06:05:20;5;4;
49644;PMS5003;36494;50.730;-1.932;2023-04-25T06:07:46;8;7;
49644;PMS5003;36494;50.730;-1.932;2023-04-25T06:10:11;9;9;
49644;PMS5003;36494;50.730;-1.932;2023-04-25T06:12:36;7;7;
49644;PMS5003;36494;50.730;-1.932;2023-04-25T06:15:02;8;7;
49644;PMS5003;36494;50.730;-1.932;2023-04-25T06:17:27;7;7;
49644;PMS5003;36494;50.730;-1.932;2023-04-25T06:19:53;10;9;
49644;PMS5003;36494;50.730;-1.932;2023-04-25T06:22:18;11;9;
49644;PMS5003;36494;50.730;-1.932;2023-04-25T06:24:43;6;6;
49644;PMS5003;36494;50.730;-1.932;2023-04-25T06:27:09;8;8;
49644;PMS5003;36494;50.730;-1.932;2023-04-25T06:29:34;9;8;
49644;PMS5003;36494;50.730;-1.932;2023-04-25T06:31:59;7;6;
49644;PMS5003;36494;50.730;-1.932;2023-04-25T06:34:25;6;5;
49644;PMS5003;36494;50.730;-1.932;2023-04-25T06:36:50;6;6;
49644;PMS5003;36494;50.730;-1.932;2023-04-25T06:39:16;6;6;
49644;PMS5003;36494;50.730;-1.932;2023-04-25T06:41:41;9;8;
49644;PMS5003;36494;50.730;-1.932;2023-04-25T06:44:07;7;5;
49644;PMS5003;36494;50.730;-1.932;2023-04-25T06:46:32;7;7;
49644;PMS5003;36494;50.730;-1.932;2023-04-25T06:48:57;6;6;
49644;PMS5003;36494;50.730;-1.932;2023-04-25T06:51:23;7;6;
49644;PMS5003;36494;50.730;-1.932;2023-04-25T06:53:48;7;6;
49644;PMS5003;36494;50.730;-1.932;2023-04-25T06:56:14;6;5;
49644;PMS5003;36494;50.730;-1.932;2023-04-25T06:58:39;6;6;
49644;PMS5003;36494;50.730;-1.932;2023-04-25T07:01:04;6;5;
49644;PMS5003;36494;50.730;-1.932;2023-04-25T07:03:30;5;5;
49644;PMS5003;36494;50.730;-1.932;2023-04-25T07:05:55;6;6;
49644;PMS5003;36494;50.730;-1.932;2023-04-25T07:08:21;6;5;
49644;PMS5003;36494;50.730;-1.932;2023-04-25T07:10:46;8;7;
49644;PMS5003;36494;50.730;-1.932;2023-04-25T07:13:11;7;5;
49644;PMS5003;36494;50.730;-1.932;2023-04-25T07:15:37;7;7;
49644;PMS5003;36494;50.730;-1.932;2023-04-25T07:18:02;7;7;
49644;PMS5003;36494;50.730;-1.932;2023-04-25T07:20:28;3;3;
49644;PMS5003;36494;50.730;-1.932;2023-04-25T07:22:53;6;6;
49644;PMS5003;36494;50.730;-1.932;2023-04-25T07:25:18;7;6;
49644;PMS5003;36494;50.730;-1.932;2023-04-25T07:27:44;5;5;
49644;PMS5003;36494;50.730;-1.932;2023-04-25T07:30:10;6;6;
49644;PMS5003;36494;50.730;-1.932;2023-04-25T07:32:35;6;6;
49644;PMS5003;36494;50.730;-1.932;2023-04-25T07:35:00;3;3;
49644;PMS5003;36494;50.730;-1.932;2023-04-25T07:37:26;6;6;
49644;PMS5003;36494;50.730;-1.932;2023-04-25T07:39:51;7;5;
49644;PMS5003;36494;50.730;-1.932;2023-04-25T07:42:16;5;5;
49644;PMS5003;36494;50.730;-1.932;2023-04-25T07:44:42;7;6;
49644;PMS5003;36494;50.730;-1.932;2023-04-25T07:47:08;5;5;
49644;PMS5003;36494;50.730;-1.932;2023-04-25T07:49:33;5;5;
49644;PMS5003;36494;50.730;-1.932;2023-04-25T07:51:58;3;3;
49644;PMS5003;36494;50.730;-1.932;2023-04-25T07:54:24;7;5;
49644;PMS5003;36494;50.730;-1.932;2023-04-25T07:56:49;5;4;
49644;PMS5003;36494;50.730;-1.932;2023-04-25T07:59:14;5;5;
49644;PMS5003;36494;50.730;-1.932;2023-04-25T08:01:39;2;2;
49644;PMS5003;36494;50.730;-1.932;2023-04-25T08:04:05;3;3;
49644;PMS5003;36494;50.730;-1.932;2023-04-25T08:06:30;3;3;
49644;PMS5003;36494;50.730;-1.932;2023-04-25T08:08:56;5;5;
49644;PMS5003;36494;50.730;-1.932;2023-04-25T08:11:21;6;5;
49644;PMS5003;36494;50.730;-1.932;2023-04-25T08:13:46;4;2;
49644;PMS5003;36494;50.730;-1.932;2023-04-25T08:16:12;3;3;
49644;PMS5003;36494;50.730;-1.932;2023-04-25T08:18:37;3;3;
49644;PMS5003;36494;50.730;-1.932;2023-04-25T08:21:03;3;3;
49644;PMS5003;36494;50.730;-1.932;2023-04-25T08:23:28;4;4;
49644;PMS5003;36494;50.730;-1.932;2023-04-25T08:25:53;4;3;
49644;PMS5003;36494;50.730;-1.932;2023-04-25T08:28:19;2;2;
49644;PMS5003;36494;50.730;-1.932;2023-04-25T08:30:44;4;4;
49644;PMS5003;36494;50.730;-1.932;2023-04-25T08:33:10;3;3;
49644;PMS5003;36494;50.730;-1.932;2023-04-25T08:35:35;2;1;
49644;PMS5003;36494;50.730;-1.932;2023-04-25T08:38:00;3;3;
49644;PMS5003;36494;50.730;-1.932;2023-04-25T08:40:26;3;3;
49644;PMS5003;36494;50.730;-1.932;2023-04-25T08:42:52;2;2;
49644;PMS5003;36494;50.730;-1.932;2023-04-25T08:45:17;3;3;
49644;PMS5003;36494;50.730;-1.932;2023-04-25T08:47:42;3;2;
49644;PMS5003;36494;50.730;-1.932;2023-04-25T08:50:08;1;1;
49644;PMS5003;36494;50.730;-1.932;2023-04-25T08:52:35;2;2;
49644;PMS5003;36494;50.730;-1.932;2023-04-25T08:54:58;4;3;
49644;PMS5003;36494;50.730;-1.932;2023-04-25T08:57:24;3;3;
49644;PMS5003;36494;50.730;-1.932;2023-04-25T08:59:49;2;2;
49644;PMS5003;36494;50.730;-1.932;2023-04-25T09:02:14;2;2;
49644;PMS5003;36494;50.730;-1.932;2023-04-25T09:04:40;2;2;
49644;PMS5003;36494;50.730;-1.932;2023-04-25T09:07:05;3;3;
49644;PMS5003;36494;50.730;-1.932;2023-04-25T09:09:31;1;1;
49644;PMS5003;36494;50.730;-1.932;2023-04-25T09:11:56;2;2;
49644;PMS5003;36494;50.730;-1.932;2023-04-25T09:14:22;2;2;
49644;PMS5003;36494;50.730;-1.932;2023-04-25T09:21:37;2;2;
49644;PMS5003;36494;50.730;-1.932;2023-04-25T09:24:03;4;3;
49644;PMS5003;36494;50.730;-1.932;2023-04-25T09:26:28;1;1;
49644;PMS5003;36494;50.730;-1.932;2023-04-25T09:31:21;2;2;
49644;PMS5003;36494;50.730;-1.932;2023-04-25T09:33:44;2;2;
49644;PMS5003;36494;50.730;-1.932;2023-04-25T09:36:10;2;2;
49644;PMS5003;36494;50.730;-1.932;2023-04-25T09:38:39;4;3;
49644;PMS5003;36494;50.730;-1.932;2023-04-25T09:41:01;3;2;
49644;PMS5003;36494;50.730;-1.932;2023-04-25T09:43:26;3;3;
49644;PMS5003;36494;50.730;-1.932;2023-04-25T09:45:53;2;2;
49644;PMS5003;36494;50.730;-1.932;2023-04-25T09:48:17;2;2;
49644;PMS5003;36494;50.730;-1.932;2023-04-25T09:50:42;1;1;
49644;PMS5003;36494;50.730;-1.932;2023-04-25T09:53:07;3;2;
49644;PMS5003;36494;50.730;-1.932;2023-04-25T09:55:33;2;2;
49644;PMS5003;36494;50.730;-1.932;2023-04-25T09:57:59;2;2;
49644;PMS5003;36494;50.730;-1.932;2023-04-25T10:00:24;3;3;
49644;PMS5003;36494;50.730;-1.932;2023-04-25T10:02:49;2;2;
49644;PMS5003;36494;50.730;-1.932;2023-04-25T10:05:14;5;3;
49644;PMS5003;36494;50.730;-1.932;2023-04-25T10:07:40;2;2;
49644;PMS5003;36494;50.730;-1.932;2023-04-25T10:10:05;2;2;
49644;PMS5003;36494;50.730;-1.932;2023-04-25T10:12:30;3;3;
49644;PMS5003;36494;50.730;-1.932;2023-04-25T10:14:55;2;2;
49644;PMS5003;36494;50.730;-1.932;2023-04-25T10:17:21;2;1;
49644;PMS5003;36494;50.730;-1.932;2023-04-25T10:19:46;3;3;
49644;PMS5003;36494;50.730;-1.932;2023-04-25T10:22:13;2;2;
49644;PMS5003;36494;50.730;-1.932;2023-04-25T10:24:37;3;3;
49644;PMS5003;36494;50.730;-1.932;2023-04-25T10:27:02;3;3;
49644;PMS5003;36494;50.730;-1.932;2023-04-25T10:29:27;2;2;
49644;PMS5003;36494;50.730;-1.932;2023-04-25T10:31:53;2;1;
49644;PMS5003;36494;50.730;-1.932;2023-04-25T10:34:18;4;3;
49644;PMS5003;36494;50.730;-1.932;2023-04-25T10:36:46;2;2;
49644;PMS5003;36494;50.730;-1.932;2023-04-25T10:39:09;3;2;
49644;PMS5003;36494;50.730;-1.932;2023-04-25T10:44:00;2;2;
49644;PMS5003;36494;50.730;-1.932;2023-04-25T10:46:26;2;2;
49644;PMS5003;36494;50.730;-1.932;2023-04-25T10:48:50;2;2;
49644;PMS5003;36494;50.730;-1.932;2023-04-25T10:51:17;3;3;
49644;PMS5003;36494;50.730;-1.932;2023-04-25T10:53:41;3;3;
49644;PMS5003;36494;50.730;-1.932;2023-04-25T10:56:09;0;0;
49644;PMS5003;36494;50.730;-1.932;2023-04-25T10:58:32;1;1;
49644;PMS5003;36494;50.730;-1.932;2023-04-25T11:00:57;2;2;
49644;PMS5003;36494;50.730;-1.932;2023-04-25T11:03:22;1;1;
49644;PMS5003;36494;50.730;-1.932;2023-04-25T11:05:47;1;1;
49644;PMS5003;36494;50.730;-1.932;2023-04-25T11:08:13;2;2;
49644;PMS5003;36494;50.730;-1.932;2023-04-25T11:10:38;2;2;
49644;PMS5003;36494;50.730;-1.932;2023-04-25T11:13:03;2;2;
49644;PMS5003;36494;50.730;-1.932;2023-04-25T11:15:28;1;1;
49644;PMS5003;36494;50.730;-1.932;2023-04-25T11:17:54;3;3;
49644;PMS5003;36494;50.730;-1.932;2023-04-25T11:20:19;1;1;
49644;PMS5003;36494;50.730;-1.932;2023-04-25T11:22:44;2;2;
49644;PMS5003;36494;50.730;-1.932;2023-04-25T11:25:10;2;1;
49644;PMS5003;36494;50.730;-1.932;2023-04-25T11:27:37;2;2;
49644;PMS5003;36494;50.730;-1.932;2023-04-25T11:32:25;2;2;
49644;PMS5003;36494;50.730;-1.932;2023-04-25T11:34:52;3;3;
49644;PMS5003;36494;50.730;-1.932;2023-04-25T11:37:16;3;2;
49644;PMS5003;36494;50.730;-1.932;2023-04-25T11:39:43;2;2;
49644;PMS5003;36494;50.730;-1.932;2023-04-25T11:42:06;3;3;
49644;PMS5003;36494;50.730;-1.932;2023-04-25T11:44:32;3;2;
49644;PMS5003;36494;50.730;-1.932;2023-04-25T11:46:57;2;2;
49644;PMS5003;36494;50.730;-1.932;2023-04-25T11:49:22;3;3;
49644;PMS5003;36494;50.730;-1.932;2023-04-25T11:51:48;2;2;
49644;PMS5003;36494;50.730;-1.932;2023-04-25T11:54:13;2;2;
49644;PMS5003;36494;50.730;-1.932;2023-04-25T11:56:40;3;2;
49644;PMS5003;36494;50.730;-1.932;2023-04-25T11:59:04;2;2;
49644;PMS5003;36494;50.730;-1.932;2023-04-25T12:01:30;2;2;
49644;PMS5003;36494;50.730;-1.932;2023-04-25T12:03:54;2;2;
49644;PMS5003;36494;50.730;-1.932;2023-04-25T12:06:20;3;2;
49644;PMS5003;36494;50.730;-1.932;2023-04-25T12:13:36;3;3;
49644;PMS5003;36494;50.730;-1.932;2023-04-25T12:16:01;1;1;
49644;PMS5003;36494;50.730;-1.932;2023-04-25T12:18:26;3;3;
49644;PMS5003;36494;50.730;-1.932;2023-04-25T12:20:52;3;3;
49644;PMS5003;36494;50.730;-1.932;2023-04-25T12:23:17;2;2;
49644;PMS5003;36494;50.730;-1.932;2023-04-25T12:25:43;3;2;
49644;PMS5003;36494;50.730;-1.932;2023-04-25T12:28:09;4;3;
49644;PMS5003;36494;50.730;-1.932;2023-04-25T12:32:58;2;1;
49644;PMS5003;36494;50.730;-1.932;2023-04-25T12:35:24;2;2;
49644;PMS5003;36494;50.730;-1.932;2023-04-25T12:37:49;1;1;
49644;PMS5003;36494;50.730;-1.932;2023-04-25T12:40:14;2;2;
49644;PMS5003;36494;50.730;-1.932;2023-04-25T12:42:40;1;1;
49644;PMS5003;36494;50.730;-1.932;2023-04-25T12:45:06;2;2;
49644;PMS5003;36494;50.730;-1.932;2023-04-25T12:47:31;2;2;
49644;PMS5003;36494;50.730;-1.932;2023-04-25T12:49:56;3;1;
49644;PMS5003;36494;50.730;-1.932;2023-04-25T12:52:21;3;3;
49644;PMS5003;36494;50.730;-1.932;2023-04-25T12:54:47;2;2;
49644;PMS5003;36494;50.730;-1.932;2023-04-25T12:57:12;2;1;
49644;PMS5003;36494;50.730;-1.932;2023-04-25T12:59:37;2;2;
49644;PMS5003;36494;50.730;-1.932;2023-04-25T13:02:03;2;2;
49644;PMS5003;36494;50.730;-1.932;2023-04-25T13:04:28;4;4;
49644;PMS5003;36494;50.730;-1.932;2023-04-25T13:06:53;3;3;
49644;PMS5003;36494;50.730;-1.932;2023-04-25T13:09:19;1;1;
49644;PMS5003;36494;50.730;-1.932;2023-04-25T13:11:44;3;3;
49644;PMS5003;36494;50.730;-1.932;2023-04-25T13:14:09;2;2;
49644;PMS5003;36494;50.730;-1.932;2023-04-25T13:16:35;2;1;
49644;PMS5003;36494;50.730;-1.932;2023-04-25T13:19:00;3;2;
49644;PMS5003;36494;50.730;-1.932;2023-04-25T13:21:25;3;2;
49644;PMS5003;36494;50.730;-1.932;2023-04-25T13:23:51;2;2;
49644;PMS5003;36494;50.730;-1.932;2023-04-25T13:26:16;2;2;
49644;PMS5003;36494;50.730;-1.932;2023-04-25T13:28:42;2;2;
49644;PMS5003;36494;50.730;-1.932;2023-04-25T13:31:07;2;2;
49644;PMS5003;36494;50.730;-1.932;2023-04-25T13:33:32;2;2;
49644;PMS5003;36494;50.730;-1.932;2023-04-25T13:35:58;5;3;
49644;PMS5003;36494;50.730;-1.932;2023-04-25T13:38:24;3;3;
49644;PMS5003;36494;50.730;-1.932;2023-04-25T13:40:48;2;2;
49644;PMS5003;36494;50.730;-1.932;2023-04-25T13:43:14;4;4;
49644;PMS5003;36494;50.730;-1.932;2023-04-25T13:45:39;3;3;
49644;PMS5003;36494;50.730;-1.932;2023-04-25T13:48:05;3;2;
49644;PMS5003;36494;50.730;-1.932;2023-04-25T13:50:30;2;2;
49644;PMS5003;36494;50.730;-1.932;2023-04-25T13:52:55;3;3;
49644;PMS5003;36494;50.730;-1.932;2023-04-25T13:55:21;4;3;
49644;PMS5003;36494;50.730;-1.932;2023-04-25T13:57:46;6;6;
49644;PMS5003;36494;50.730;-1.932;2023-04-25T14:00:12;6;6;
49644;PMS5003;36494;50.730;-1.932;2023-04-25T14:02:36;3;3;
49644;PMS5003;36494;50.730;-1.932;2023-04-25T14:05:02;4;4;
49644;PMS5003;36494;50.730;-1.932;2023-04-25T14:07:27;3;2;
49644;PMS5003;36494;50.730;-1.932;2023-04-25T14:09:52;3;3;
49644;PMS5003;36494;50.730;-1.932;2023-04-25T14:12:18;2;2;
49644;PMS5003;36494;50.730;-1.932;2023-04-25T14:14:43;3;3;
49644;PMS5003;36494;50.730;-1.932;2023-04-25T14:17:08;4;4;
49644;PMS5003;36494;50.730;-1.932;2023-04-25T14:19:34;5;3;
49644;PMS5003;36494;50.730;-1.932;2023-04-25T14:21:59;4;3;
49644;PMS5003;36494;50.730;-1.932;2023-04-25T14:24:25;2;2;
49644;PMS5003;36494;50.730;-1.932;2023-04-25T14:26:50;3;3;
49644;PMS5003;36494;50.730;-1.932;2023-04-25T14:29:15;3;2;
49644;PMS5003;36494;50.730;-1.932;2023-04-25T14:31:41;2;2;
49644;PMS5003;36494;50.730;-1.932;2023-04-25T14:34:06;3;3;
49644;PMS5003;36494;50.730;-1.932;2023-04-25T14:36:31;3;3;
49644;PMS5003;36494;50.730;-1.932;2023-04-25T14:38:57;3;2;
49644;PMS5003;36494;50.730;-1.932;2023-04-25T14:41:22;3;3;
49644;PMS5003;36494;50.730;-1.932;2023-04-25T14:43:47;4;3;
49644;PMS5003;36494;50.730;-1.932;2023-04-25T14:46:13;3;3;
49644;PMS5003;36494;50.730;-1.932;2023-04-25T14:48:38;3;3;
49644;PMS5003;36494;50.730;-1.932;2023-04-25T14:51:03;3;3;
49644;PMS5003;36494;50.730;-1.932;2023-04-25T14:53:29;3;3;
49644;PMS5003;36494;50.730;-1.932;2023-04-25T14:55:54;4;2;
49644;PMS5003;36494;50.730;-1.932;2023-04-25T14:58:20;4;4;
49644;PMS5003;36494;50.730;-1.932;2023-04-25T15:00:45;3;3;
49644;PMS5003;36494;50.730;-1.932;2023-04-25T15:03:10;5;4;
49644;PMS5003;36494;50.730;-1.932;2023-04-25T15:05:36;2;2;
49644;PMS5003;36494;50.730;-1.932;2023-04-25T15:08:01;3;3;
49644;PMS5003;36494;50.730;-1.932;2023-04-25T15:10:26;2;2;
49644;PMS5003;36494;50.730;-1.932;2023-04-25T15:12:52;5;3;
49644;PMS5003;36494;50.730;-1.932;2023-04-25T15:15:17;1;1;
49644;PMS5003;36494;50.730;-1.932;2023-04-25T15:17:43;5;4;
49644;PMS5003;36494;50.730;-1.932;2023-04-25T15:20:08;4;3;
49644;PMS5003;36494;50.730;-1.932;2023-04-25T15:22:33;3;2;
49644;PMS5003;36494;50.730;-1.932;2023-04-25T15:24:59;3;3;
49644;PMS5003;36494;50.730;-1.932;2023-04-25T15:27:24;4;4;
49644;PMS5003;36494;50.730;-1.932;2023-04-25T15:29:49;3;2;
49644;PMS5003;36494;50.730;-1.932;2023-04-25T15:32:15;5;4;
49644;PMS5003;36494;50.730;-1.932;2023-04-25T15:34:40;3;3;
49644;PMS5003;36494;50.730;-1.932;2023-04-25T15:37:05;3;3;
49644;PMS5003;36494;50.730;-1.932;2023-04-25T15:39:31;2;2;
49644;PMS5003;36494;50.730;-1.932;2023-04-25T15:41:56;5;4;
49644;PMS5003;36494;50.730;-1.932;2023-04-25T15:44:21;6;4;
49644;PMS5003;36494;50.730;-1.932;2023-04-25T15:46:47;3;3;
49644;PMS5003;36494;50.730;-1.932;2023-04-25T15:49:12;2;2;
49644;PMS5003;36494;50.730;-1.932;2023-04-25T15:51:38;4;3;
49644;PMS5003;36494;50.730;-1.932;2023-04-25T15:54:03;2;2;
49644;PMS5003;36494;50.730;-1.932;2023-04-25T15:56:28;2;2;
49644;PMS5003;36494;50.730;-1.932;2023-04-25T15:58:54;3;3;
49644;PMS5003;36494;50.730;-1.932;2023-04-25T16:01:19;3;3;
49644;PMS5003;36494;50.730;-1.932;2023-04-25T16:03:44;2;2;
49644;PMS5003;36494;50.730;-1.932;2023-04-25T16:06:09;3;3;
49644;PMS5003;36494;50.730;-1.932;2023-04-25T16:08:35;3;3;
49644;PMS5003;36494;50.730;-1.932;2023-04-25T16:11:00;3;3;
49644;PMS5003;36494;50.730;-1.932;2023-04-25T16:13:26;2;2;
49644;PMS5003;36494;50.730;-1.932;2023-04-25T16:15:51;2;2;
49644;PMS5003;36494;50.730;-1.932;2023-04-25T16:18:16;2;2;
49644;PMS5003;36494;50.730;-1.932;2023-04-25T16:20:42;4;4;
49644;PMS5003;36494;50.730;-1.932;2023-04-25T16:23:07;2;2;
49644;PMS5003;36494;50.730;-1.932;2023-04-25T16:25:33;4;3;
49644;PMS5003;36494;50.730;-1.932;2023-04-25T16:27:58;3;3;
49644;PMS5003;36494;50.730;-1.932;2023-04-25T16:30:23;4;3;